createdAt,value
2017-09-01T00:02:09.976Z,98.80
2017-09-01T00:04:38.266Z,98.90
2017-09-01T00:07:06.642Z,98.80
2017-09-01T00:09:34.924Z,98.90
2017-09-01T00:12:03.239Z,99.00
2017-09-01T00:14:31.565Z,99.20
2017-09-01T00:17:00.004Z,99.00
2017-09-01T00:19:28.297Z,99.10
2017-09-01T00:21:56.588Z,99.00
2017-09-01T00:24:24.912Z,99.20
2017-09-01T00:26:54.243Z,98.70
2017-09-01T00:29:22.588Z,98.70
2017-09-01T00:31:50.967Z,99.20
2017-09-01T00:34:19.359Z,99.20
2017-09-01T00:36:47.675Z,99.30
2017-09-01T00:39:15.989Z,99.20
2017-09-01T00:41:44.267Z,99.40
2017-09-01T00:44:12.593Z,99.80
2017-09-01T00:46:40.862Z,99.90
2017-09-01T00:49:09.149Z,99.40
2017-09-01T00:51:37.489Z,99.50
2017-09-01T00:54:05.767Z,99.60
2017-09-01T00:56:34.051Z,99.60
2017-09-01T00:59:02.363Z,99.50
2017-09-01T01:01:30.674Z,99.60
2017-09-01T01:03:58.956Z,99.60
2017-09-01T01:06:28.031Z,99.90
2017-09-01T01:08:56.321Z,99.80
2017-09-01T01:11:24.636Z,99.90
2017-09-01T01:13:52.911Z,99.90
2017-09-01T01:16:21.222Z,99.90
2017-09-01T01:18:49.516Z,99.90
2017-09-01T01:21:17.823Z,99.90
2017-09-01T01:23:46.139Z,99.90
2017-09-01T01:26:14.414Z,99.90
2017-09-01T01:28:42.747Z,99.90
2017-09-01T01:31:12.064Z,99.90
2017-09-01T01:33:40.453Z,98.90
2017-09-01T01:36:08.834Z,99.10
2017-09-01T01:38:37.951Z,99.30
2017-09-01T01:41:06.237Z,99.20
2017-09-01T01:43:34.641Z,99.00
2017-09-01T01:46:03.128Z,99.00
2017-09-01T01:48:31.509Z,98.90
2017-09-01T01:50:59.813Z,98.40
2017-09-01T01:53:28.124Z,98.80
2017-09-01T01:55:56.489Z,98.30
2017-09-01T01:58:24.776Z,98.30
2017-09-01T02:00:53.165Z,98.50
2017-09-01T02:03:21.479Z,98.30
2017-09-01T02:05:49.792Z,98.40
2017-09-01T02:08:19.076Z,98.40
2017-09-01T02:10:47.346Z,98.40
2017-09-01T02:13:15.636Z,98.70
2017-09-01T02:15:43.957Z,98.80
2017-09-01T02:18:13.135Z,98.80
2017-09-01T02:20:41.424Z,98.80
2017-09-01T02:23:09.914Z,98.60
2017-09-01T02:25:38.319Z,98.20
2017-09-01T02:28:06.594Z,98.70
2017-09-01T02:30:35.011Z,98.90
2017-09-01T02:33:03.383Z,99.00
2017-09-01T02:35:31.693Z,98.80
2017-09-01T02:38:00.005Z,98.80
2017-09-01T02:40:28.342Z,99.20
2017-09-01T02:42:56.645Z,99.10
2017-09-01T02:45:24.956Z,98.50
2017-09-01T02:47:53.276Z,98.70
2017-09-01T02:50:21.564Z,99.20
2017-09-01T02:52:49.896Z,98.50
2017-09-01T02:55:18.184Z,98.00
2017-09-01T02:57:46.495Z,98.30
2017-09-01T03:00:14.784Z,98.10
2017-09-01T03:02:43.067Z,98.10
2017-09-01T03:05:11.374Z,98.00
2017-09-01T03:07:39.696Z,98.10
2017-09-01T03:10:07.982Z,98.30
2017-09-01T03:12:36.305Z,98.10
2017-09-01T03:15:04.579Z,98.80
2017-09-01T03:17:32.873Z,98.80
2017-09-01T03:20:01.180Z,98.60
2017-09-01T03:22:29.463Z,98.50
2017-09-01T03:24:57.893Z,98.40
2017-09-01T03:27:26.181Z,98.20
2017-09-01T03:29:54.531Z,98.40
2017-09-01T03:32:22.927Z,98.30
2017-09-01T03:34:51.254Z,98.30
2017-09-01T03:37:19.549Z,98.80
2017-09-01T03:39:48.591Z,98.80
2017-09-01T03:42:16.907Z,98.80
2017-09-01T03:44:45.223Z,98.80
2017-09-01T03:47:14.299Z,98.90
2017-09-01T03:49:42.618Z,98.90
2017-09-01T03:52:10.927Z,99.00
2017-09-01T03:54:39.248Z,99.00
2017-09-01T03:57:07.659Z,98.30
2017-09-01T03:59:35.944Z,98.70
2017-09-01T04:02:04.449Z,98.60
2017-09-01T04:04:32.745Z,98.70
2017-09-01T04:07:01.118Z,98.80
2017-09-01T04:09:29.421Z,98.70
2017-09-01T04:11:57.736Z,98.90
2017-09-01T04:14:26.064Z,98.90
2017-09-01T04:16:54.367Z,98.90
2017-09-01T04:19:22.657Z,99.00
2017-09-01T04:21:50.997Z,99.00
2017-09-01T04:24:20.062Z,99.00
2017-09-01T04:26:49.135Z,99.00
2017-09-01T04:29:17.574Z,98.60
2017-09-01T04:31:45.955Z,98.70
2017-09-01T04:34:14.349Z,98.70
2017-09-01T04:36:42.628Z,98.80
2017-09-01T04:39:10.948Z,98.80
2017-09-01T04:41:39.308Z,99.10
2017-09-01T04:44:07.582Z,99.10
2017-09-01T04:46:35.894Z,98.80
2017-09-01T04:49:04.283Z,99.00
2017-09-01T04:51:32.604Z,98.90
2017-09-01T04:54:00.878Z,98.90
2017-09-01T04:56:29.197Z,98.80
2017-09-01T04:58:57.475Z,98.60
2017-09-01T05:01:25.797Z,98.90
2017-09-01T05:03:54.080Z,98.60
2017-09-01T05:06:22.428Z,98.50
2017-09-01T05:08:50.812Z,98.30
2017-09-01T05:11:19.095Z,98.50
2017-09-01T05:13:47.491Z,98.60
2017-09-01T05:16:15.971Z,98.40
2017-09-01T05:18:44.969Z,98.40
2017-09-01T05:21:13.261Z,98.50
2017-09-01T05:23:41.576Z,98.60
2017-09-01T05:26:12.220Z,98.50
2017-09-01T05:28:40.541Z,98.40
2017-09-01T05:31:09.611Z,98.50
2017-09-01T05:33:37.932Z,98.50
2017-09-01T05:36:06.244Z,98.70
2017-09-01T05:38:34.528Z,98.70
2017-09-01T05:41:02.860Z,99.00
2017-09-01T05:43:31.159Z,98.40
2017-09-01T05:45:59.548Z,98.30
2017-09-01T05:48:27.868Z,98.20
2017-09-01T05:50:56.174Z,98.10
2017-09-01T05:53:24.472Z,97.90
2017-09-01T05:55:52.775Z,97.70
2017-09-01T05:58:21.082Z,97.90
2017-09-01T06:00:49.368Z,97.60
2017-09-01T06:03:17.670Z,98.70
2017-09-01T06:05:45.974Z,98.30
2017-09-01T06:08:14.293Z,98.30
2017-09-01T06:10:42.616Z,98.10
2017-09-01T06:13:10.940Z,98.00
2017-09-01T06:15:39.324Z,98.20
2017-09-01T06:18:07.599Z,98.20
2017-09-01T06:20:35.925Z,96.90
2017-09-01T06:23:04.216Z,97.20
2017-09-01T06:25:32.540Z,97.00
2017-09-01T06:28:00.864Z,97.20
2017-09-01T06:30:29.148Z,96.90
2017-09-01T06:32:57.449Z,97.00
2017-09-01T06:35:25.768Z,97.30
2017-09-01T06:37:54.070Z,97.40
2017-09-01T06:40:22.380Z,97.60
2017-09-01T06:42:50.714Z,97.10
2017-09-01T06:45:18.988Z,96.80
2017-09-01T06:47:47.328Z,97.20
2017-09-01T06:50:15.616Z,96.40
2017-09-01T06:52:43.909Z,96.70
2017-09-01T06:55:12.232Z,96.80
2017-09-01T06:57:40.537Z,97.40
2017-09-01T07:00:08.981Z,97.30
2017-09-01T07:02:37.329Z,96.80
2017-09-01T07:05:05.646Z,96.80
2017-09-01T07:07:33.918Z,97.20
2017-09-01T07:10:02.257Z,96.80
2017-09-01T07:12:30.527Z,96.90
2017-09-01T07:14:58.872Z,96.80
2017-09-01T07:17:27.174Z,96.30
2017-09-01T07:19:55.487Z,96.30
2017-09-01T07:22:23.832Z,96.10
2017-09-01T07:24:52.141Z,96.30
2017-09-01T07:27:20.446Z,96.10
2017-09-01T07:32:23.500Z,96.20
2017-09-01T07:34:51.831Z,96.20
2017-09-01T07:37:20.124Z,96.30
2017-09-01T07:39:48.413Z,95.80
2017-09-01T07:42:16.723Z,96.00
2017-09-01T07:44:45.030Z,96.30
2017-09-01T07:47:14.102Z,96.20
2017-09-01T07:49:42.424Z,96.20
2017-09-01T07:52:10.792Z,96.00
2017-09-01T07:54:39.167Z,96.00
2017-09-01T07:57:07.463Z,95.80
2017-09-01T07:59:35.789Z,95.60
2017-09-01T08:02:04.077Z,95.10
2017-09-01T08:04:32.396Z,95.50
2017-09-01T08:07:00.732Z,95.40
2017-09-01T08:09:29.052Z,95.30
2017-09-01T08:11:57.368Z,95.30
2017-09-01T08:14:25.802Z,94.90
2017-09-01T08:16:54.107Z,94.70
2017-09-01T08:19:22.423Z,94.90
2017-09-01T08:21:50.712Z,94.30
2017-09-01T08:24:18.996Z,94.00
2017-09-01T08:26:47.316Z,94.30
2017-09-01T08:29:15.716Z,93.70
2017-09-01T08:31:44.035Z,94.10
2017-09-01T08:34:12.346Z,93.60
2017-09-01T08:36:40.640Z,93.70
2017-09-01T08:39:08.984Z,93.60
2017-09-01T08:41:37.325Z,94.00
2017-09-01T08:44:06.554Z,93.10
2017-09-01T08:46:35.786Z,91.90
2017-09-01T08:49:04.212Z,91.90
2017-09-01T08:51:33.678Z,91.80
2017-09-01T08:54:02.271Z,91.90
2017-09-01T08:56:30.612Z,92.50
2017-09-01T08:58:59.248Z,91.50
2017-09-01T09:01:28.899Z,91.40
2017-09-01T09:03:57.359Z,91.10
2017-09-01T09:06:25.771Z,90.40
2017-09-01T09:08:55.142Z,91.30
2017-09-01T09:11:23.695Z,90.90
2017-09-01T09:13:52.394Z,90.10
2017-09-01T09:16:21.504Z,89.70
2017-09-01T09:18:49.979Z,89.70
2017-09-01T09:21:19.021Z,88.70
2017-09-01T09:23:48.663Z,89.70
2017-09-01T09:26:17.217Z,89.70
2017-09-01T09:28:47.063Z,89.00
2017-09-01T09:31:15.755Z,87.50
2017-09-01T09:33:44.308Z,88.20
2017-09-01T09:36:12.991Z,87.30
2017-09-01T09:38:42.637Z,88.40
2017-09-01T09:41:11.169Z,88.30
2017-09-01T09:43:39.627Z,88.60
2017-09-01T09:46:08.028Z,88.70
2017-09-01T09:48:36.336Z,85.50
2017-09-01T09:51:04.728Z,87.60
2017-09-01T09:53:33.501Z,87.70
2017-09-01T09:56:02.106Z,89.00
2017-09-01T09:58:31.995Z,88.90
2017-09-01T10:01:00.547Z,87.80
2017-09-01T10:03:29.180Z,88.50
2017-09-01T10:05:57.663Z,87.00
2017-09-01T10:08:26.376Z,86.80
2017-09-01T10:10:54.853Z,86.40
2017-09-01T10:13:23.315Z,86.40
2017-09-01T10:15:51.636Z,86.50
2017-09-01T10:18:20.683Z,87.10
2017-09-01T10:20:49.917Z,87.10
2017-09-01T10:23:18.483Z,87.20
2017-09-01T10:25:46.836Z,85.80
2017-09-01T10:28:15.136Z,87.10
2017-09-01T10:30:43.442Z,88.60
2017-09-01T10:33:11.719Z,87.10
2017-09-01T10:35:40.045Z,85.40
2017-09-01T10:38:08.319Z,86.90
2017-09-01T10:40:36.635Z,85.40
2017-09-01T10:43:04.949Z,87.90
2017-09-01T10:45:33.288Z,85.30
2017-09-01T10:48:13.510Z,83.10
2017-09-01T10:53:56.073Z,84.30
2017-09-01T10:56:36.423Z,81.90
2017-09-01T10:59:05.572Z,83.90
2017-09-01T11:01:34.620Z,82.90
2017-09-01T11:04:02.905Z,82.80
2017-09-01T11:06:31.300Z,81.90
2017-09-01T11:08:59.655Z,85.30
2017-09-01T11:11:27.969Z,86.80
2017-09-01T11:13:56.392Z,84.80
2017-09-01T11:16:24.680Z,85.30
2017-09-01T11:18:58.681Z,85.70
2017-09-01T11:21:32.592Z,86.10
2017-09-01T11:24:06.743Z,86.90
2017-09-01T11:26:35.018Z,87.80
2017-09-01T11:29:03.312Z,87.20
2017-09-01T11:31:31.618Z,86.20
2017-09-01T11:34:00.847Z,85.50
2017-09-01T11:36:29.189Z,86.60
2017-09-01T11:38:57.460Z,85.10
2017-09-01T11:41:25.799Z,84.70
2017-09-01T11:43:54.089Z,85.90
2017-09-01T11:46:22.403Z,83.60
2017-09-01T11:48:50.688Z,85.20
2017-09-01T11:51:19.002Z,85.50
2017-09-01T11:53:47.288Z,85.20
2017-09-01T11:56:16.363Z,85.80
2017-09-01T11:58:45.187Z,85.80
2017-09-01T12:01:14.266Z,83.80
2017-09-01T12:03:42.568Z,83.80
2017-09-01T12:06:10.956Z,84.70
2017-09-01T12:08:39.244Z,85.40
2017-09-01T12:11:07.740Z,85.20
2017-09-01T12:13:36.122Z,86.70
2017-09-01T12:16:05.448Z,87.40
2017-09-01T12:18:33.822Z,87.00
2017-09-01T12:21:02.104Z,86.50
2017-09-01T12:23:30.388Z,86.30
2017-09-01T12:25:58.796Z,86.20
2017-09-01T12:28:27.187Z,84.90
2017-09-01T12:30:55.675Z,85.40
2017-09-01T12:33:23.960Z,85.60
2017-09-01T12:35:52.235Z,85.40
2017-09-01T12:38:20.656Z,85.40
2017-09-01T12:40:48.963Z,85.70
2017-09-01T12:43:18.021Z,85.90
2017-09-01T12:45:46.347Z,85.90
2017-09-01T12:48:14.637Z,88.80
2017-09-01T12:50:42.916Z,86.00
2017-09-01T12:53:11.240Z,87.20
2017-09-01T12:55:39.515Z,90.10
2017-09-01T12:58:07.823Z,91.20
2017-09-01T13:00:36.172Z,91.20
2017-09-01T13:03:04.482Z,90.70
2017-09-01T13:05:33.536Z,90.00
2017-09-01T13:08:01.832Z,89.90
2017-09-01T13:10:30.139Z,90.20
2017-09-01T13:12:58.447Z,90.20
2017-09-01T13:15:26.754Z,89.40
2017-09-01T13:17:55.798Z,90.00
2017-09-01T13:20:24.075Z,90.00
2017-09-01T13:22:52.414Z,90.30
2017-09-01T13:25:20.699Z,91.10
2017-09-01T13:27:48.985Z,92.00
2017-09-01T13:30:17.301Z,92.00
2017-09-01T13:32:45.685Z,91.90
2017-09-01T13:35:13.996Z,91.30
2017-09-01T13:37:43.053Z,91.30
2017-09-01T13:40:11.455Z,91.60
2017-09-01T13:42:39.766Z,90.30
2017-09-01T13:45:08.074Z,90.40
2017-09-01T13:47:36.436Z,90.30
2017-09-01T13:50:04.747Z,90.10
2017-09-01T13:52:33.026Z,90.00
2017-09-01T13:55:01.324Z,89.70
2017-09-01T13:57:29.652Z,89.40
2017-09-01T13:59:57.923Z,88.70
2017-09-01T14:02:26.235Z,87.40
2017-09-01T14:04:54.665Z,87.30
2017-09-01T14:07:23.060Z,85.60
2017-09-01T14:09:51.437Z,84.00
2017-09-01T14:12:19.835Z,84.00
2017-09-01T14:14:48.119Z,84.60
2017-09-01T14:17:16.396Z,83.40
2017-09-01T14:19:44.712Z,82.20
2017-09-01T14:22:13.041Z,82.20
2017-09-01T14:24:41.333Z,82.30
2017-09-01T14:27:09.647Z,81.80
2017-09-01T14:29:37.937Z,82.70
2017-09-01T14:32:06.247Z,82.50
2017-09-01T14:34:34.555Z,83.30
2017-09-01T14:37:03.427Z,83.10
2017-09-01T14:39:31.735Z,83.00
2017-09-01T14:42:00.025Z,80.80
2017-09-01T14:44:28.334Z,80.40
2017-09-01T14:46:56.628Z,81.00
2017-09-01T14:49:25.702Z,81.60
2017-09-01T14:51:54.014Z,81.60
2017-09-01T14:54:22.300Z,82.00
2017-09-01T14:56:50.612Z,80.50
2017-09-01T14:59:18.894Z,79.50
2017-09-01T15:01:47.971Z,80.90
2017-09-01T15:04:16.260Z,81.00
2017-09-01T15:06:44.549Z,81.30
2017-09-01T15:09:12.891Z,80.40
2017-09-01T15:11:41.188Z,79.80
2017-09-01T15:14:09.472Z,82.10
2017-09-01T15:16:37.790Z,81.50
2017-09-01T15:19:06.103Z,81.50
2017-09-01T15:21:34.387Z,81.10
2017-09-01T15:24:02.663Z,81.70
2017-09-01T15:26:30.988Z,81.90
2017-09-01T15:28:59.327Z,82.30
2017-09-01T15:31:27.745Z,82.70
2017-09-01T15:33:56.139Z,83.60
2017-09-01T15:36:24.426Z,84.40
2017-09-01T15:38:53.689Z,85.30
2017-09-01T15:41:21.998Z,87.40
2017-09-01T15:43:50.322Z,86.30
2017-09-01T15:46:18.635Z,85.80
2017-09-01T15:48:47.696Z,85.80
2017-09-01T15:51:16.016Z,85.80
2017-09-01T15:53:44.301Z,86.80
2017-09-01T15:56:12.626Z,87.00
2017-09-01T15:58:40.956Z,86.90
2017-09-01T16:01:09.235Z,87.00
2017-09-01T16:03:37.572Z,87.80
2017-09-01T16:06:05.856Z,87.30
2017-09-01T16:08:34.926Z,88.90
2017-09-01T16:11:03.251Z,88.90
2017-09-01T16:13:32.298Z,89.70
2017-09-01T16:16:00.588Z,89.70
2017-09-01T16:18:28.908Z,90.00
2017-09-01T16:20:57.961Z,88.70
2017-09-01T16:23:27.041Z,89.00
2017-09-01T16:25:55.336Z,89.00
2017-09-01T16:28:23.651Z,89.40
2017-09-01T16:30:51.935Z,89.80
2017-09-01T16:33:21.212Z,90.10
2017-09-01T16:35:49.603Z,90.00
2017-09-01T16:38:18.011Z,90.30
2017-09-01T16:40:46.388Z,90.10
2017-09-01T16:43:14.672Z,90.30
2017-09-01T16:45:43.065Z,90.60
2017-09-01T16:48:11.351Z,90.80
2017-09-01T16:50:39.659Z,90.80
2017-09-01T16:53:08.030Z,91.30
2017-09-01T16:55:36.405Z,90.90
2017-09-01T16:58:04.719Z,91.20
2017-09-01T17:00:33.187Z,91.70
2017-09-01T17:03:01.485Z,91.70
2017-09-01T17:05:29.768Z,91.80
2017-09-01T17:07:58.102Z,92.30
2017-09-01T17:10:26.389Z,91.90
2017-09-01T17:12:54.703Z,92.00
2017-09-01T17:15:23.047Z,92.90
2017-09-01T17:17:51.359Z,92.80
2017-09-01T17:20:19.630Z,91.90
2017-09-01T17:22:48.092Z,91.60
2017-09-01T17:25:17.544Z,92.50
2017-09-01T17:27:47.067Z,92.90
2017-09-01T17:30:17.328Z,92.00
2017-09-01T17:32:51.581Z,93.10
2017-09-01T17:35:23.994Z,92.20
2017-09-01T17:37:54.523Z,93.20
2017-09-01T17:40:25.885Z,93.70
2017-09-01T17:42:57.548Z,93.60
2017-09-01T17:45:27.986Z,94.30
2017-09-01T17:47:57.840Z,93.90
2017-09-01T17:50:28.744Z,94.50
2017-09-01T17:52:57.169Z,94.20
2017-09-01T17:55:25.461Z,93.80
2017-09-01T17:57:53.816Z,94.20
2017-09-01T18:00:22.106Z,94.20
2017-09-01T18:02:50.400Z,94.10
2017-09-01T18:05:18.754Z,94.40
2017-09-01T18:07:47.207Z,94.00
2017-09-01T18:10:15.507Z,94.70
2017-09-01T18:12:44.107Z,94.40
2017-09-01T18:15:12.510Z,94.60
2017-09-01T18:17:40.804Z,94.90
2017-09-01T18:20:09.190Z,94.90
2017-09-01T18:22:37.525Z,94.10
2017-09-01T18:25:05.800Z,94.60
2017-09-01T18:27:34.155Z,94.90
2017-09-01T18:30:02.544Z,94.60
2017-09-01T18:32:30.827Z,95.00
2017-09-01T18:34:59.230Z,94.60
2017-09-01T18:37:27.612Z,94.70
2017-09-01T18:39:55.904Z,95.70
2017-09-01T18:42:24.283Z,96.00
2017-09-01T18:44:52.683Z,96.20
2017-09-01T18:47:20.972Z,95.60
2017-09-01T18:49:49.365Z,95.20
2017-09-01T18:52:17.644Z,95.20
2017-09-01T18:54:45.992Z,95.20
2017-09-01T18:57:14.337Z,95.10
2017-09-01T18:59:42.652Z,95.30
2017-09-01T19:02:10.934Z,95.50
2017-09-01T19:04:40.030Z,96.20
2017-09-01T19:07:08.321Z,96.20
2017-09-01T19:09:36.594Z,96.10
2017-09-01T19:12:04.906Z,96.30
2017-09-01T19:14:34.256Z,96.20
2017-09-01T19:17:02.687Z,95.90
2017-09-01T19:19:30.985Z,96.00
2017-09-01T19:21:59.280Z,96.00
2017-09-01T19:24:27.598Z,95.90
2017-09-01T19:26:55.879Z,96.20
2017-09-01T19:29:24.169Z,96.20
2017-09-01T19:31:53.339Z,96.30
2017-09-01T19:34:21.630Z,96.20
2017-09-01T19:36:49.957Z,96.50
2017-09-01T19:39:18.240Z,96.40
2017-09-01T19:41:46.612Z,96.40
2017-09-01T19:44:15.008Z,96.60
2017-09-01T19:46:43.291Z,96.70
2017-09-01T19:49:11.688Z,96.40
2017-09-01T19:51:40.070Z,96.40
2017-09-01T19:54:08.406Z,96.10
2017-09-01T19:56:36.694Z,96.40
2017-09-01T19:59:04.985Z,96.50
2017-09-01T20:01:33.327Z,96.10
2017-09-01T20:04:01.708Z,96.60
2017-09-01T20:06:30.102Z,96.80
2017-09-01T20:08:58.462Z,96.90
2017-09-01T20:11:26.771Z,97.20
2017-09-01T20:13:55.479Z,97.30
2017-09-01T20:16:23.782Z,97.40
2017-09-01T20:18:52.189Z,97.40
2017-09-01T20:21:20.491Z,97.20
2017-09-01T20:23:48.813Z,97.50
2017-09-01T20:26:17.096Z,97.30
2017-09-01T20:28:45.415Z,97.20
2017-09-01T20:31:13.698Z,97.40
2017-09-01T20:33:42.007Z,97.20
2017-09-01T20:36:10.319Z,97.20
2017-09-01T20:38:47.552Z,97.60
2017-09-01T20:41:16.108Z,97.70
2017-09-01T20:43:44.392Z,97.90
2017-09-01T20:46:12.785Z,98.00
2017-09-01T20:48:41.105Z,97.80
2017-09-01T20:51:09.398Z,97.80
2017-09-01T20:53:37.703Z,98.00
2017-09-01T20:56:05.977Z,98.50
2017-09-01T20:58:35.138Z,98.70
2017-09-01T21:01:03.461Z,98.70
2017-09-01T21:03:32.535Z,98.60
2017-09-01T21:06:00.859Z,98.90
2017-09-01T21:08:29.138Z,98.60
2017-09-01T21:10:58.229Z,98.60
2017-09-01T21:13:26.520Z,98.60
2017-09-01T21:15:54.917Z,98.60
2017-09-01T21:18:23.227Z,98.80
2017-09-01T21:20:51.520Z,98.70
2017-09-01T21:23:19.847Z,99.00
2017-09-01T21:25:48.173Z,99.20
2017-09-01T21:28:16.488Z,99.40
2017-09-01T21:30:45.571Z,99.20
2017-09-01T21:33:13.888Z,99.20
2017-09-01T21:35:42.248Z,98.90
2017-09-01T21:38:10.527Z,99.20
2017-09-01T21:40:38.813Z,99.00
2017-09-01T21:43:07.123Z,99.00
2017-09-01T21:45:35.414Z,99.10
2017-09-01T21:48:03.737Z,99.00
2017-09-01T21:50:32.037Z,99.10
2017-09-01T21:53:00.357Z,98.60
2017-09-01T21:55:28.631Z,98.80
2017-09-01T21:57:56.943Z,98.80
2017-09-01T22:00:25.289Z,99.20
2017-09-01T22:02:53.601Z,99.10
2017-09-01T22:05:21.913Z,99.20
2017-09-01T22:07:50.204Z,99.10
2017-09-01T22:10:18.524Z,99.10
2017-09-01T22:12:47.603Z,99.20
2017-09-01T22:15:15.937Z,99.50
2017-09-01T22:17:44.256Z,99.40
2017-09-01T22:20:13.299Z,99.60
2017-09-01T22:22:41.674Z,99.60
2017-09-01T22:25:09.977Z,99.60
2017-09-01T22:27:38.254Z,99.70
2017-09-01T22:30:06.573Z,99.50
2017-09-01T22:32:34.944Z,99.60
2017-09-01T22:35:03.245Z,99.90
2017-09-01T22:37:31.565Z,99.90
2017-09-01T22:39:59.919Z,99.90
2017-09-01T22:42:28.295Z,99.70
2017-09-01T22:44:56.592Z,99.70
2017-09-01T22:47:24.924Z,99.70
2017-09-01T22:49:53.272Z,99.70
2017-09-01T22:52:21.551Z,99.80
2017-09-01T22:54:49.859Z,99.90
2017-09-01T22:57:18.139Z,99.80
2017-09-01T22:59:46.544Z,99.90
2017-09-01T23:02:14.929Z,99.80
2017-09-01T23:04:43.231Z,99.80
2017-09-01T23:07:12.284Z,99.80
2017-09-01T23:09:40.609Z,99.80
2017-09-01T23:12:08.901Z,99.90
2017-09-01T23:14:37.186Z,99.90
2017-09-01T23:17:05.576Z,99.90
2017-09-01T23:19:33.865Z,99.90
2017-09-01T23:22:02.188Z,99.90
2017-09-01T23:24:30.545Z,99.80
2017-09-01T23:26:58.826Z,99.80
2017-09-01T23:29:27.214Z,99.70
2017-09-01T23:31:55.512Z,99.90
2017-09-01T23:34:23.799Z,99.90
2017-09-01T23:36:52.196Z,99.90
2017-09-01T23:39:20.479Z,99.90
2017-09-01T23:41:48.866Z,99.90
2017-09-01T23:44:17.201Z,99.90
2017-09-01T23:46:45.485Z,99.90
2017-09-01T23:49:13.853Z,99.90
2017-09-01T23:51:42.325Z,99.90
2017-09-01T23:54:10.948Z,99.90
2017-09-01T23:56:39.315Z,99.90
2017-09-01T23:59:07.604Z,99.90
